Time;durP1;ratioP1;P1;durP2;ratioP2;P2;SDS_P1;SDS_P2;PMS_P1;PMS_P2;Temp;Humidity;BMP_temperature;BMP_pressure;BME280_temperature;BME280_humidity;BME280_pressure;Samples;Min_cycle;Max_cycle;Signal;HPM_P1;HPM_P2
2022/11/10 00:02:15;;;;;;;;;;;18.50;59.80;;;;;;5070913;28;20394;-73
2022/11/10 00:04:40;;;;;;;;;;;18.40;59.70;;;;;;5071980;28;19920;-73
2022/11/10 00:07:06;;;;;;;;;;;18.50;59.80;;;;;;5070661;28;19925;-73
2022/11/10 00:09:31;;;;;;;;;;;18.40;59.70;;;;;;5073479;28;19920;-72
2022/11/10 00:11:57;;;;;;;;;;;18.40;59.70;;;;;;5075793;28;19931;-73
2022/11/10 00:17:10;;;;;;;;;;;18.50;59.80;;;;;;5075128;28;19920;-73
2022/11/10 00:19:35;;;;;;;;;;;18.40;59.80;;;;;;5074121;28;19924;-73
2022/11/10 00:22:01;;;;;;;;;;;18.40;59.80;;;;;;5073990;28;19927;-73
2022/11/10 00:24:27;;;;;;;;;;;18.40;59.70;;;;;;5094468;28;20001;-73
2022/11/10 00:26:53;;;;;;;;;;;18.40;59.80;;;;;;5077334;28;19966;-73
2022/11/10 00:29:19;;;;;;;;;;;18.40;59.80;;;;;;5077553;28;19931;-73
2022/11/10 00:31:44;;;;;;;;;;;18.40;59.80;;;;;;5077241;28;19920;-73
2022/11/10 00:34:11;;;;;;;;;;;18.40;59.80;;;;;;5095451;28;20022;-73
2022/11/10 00:36:36;;;;;;;;;;;18.40;59.80;;;;;;5077497;28;20018;-73
2022/11/10 00:39:02;;;;;;;;;;;18.40;59.80;;;;;;5077421;28;20431;-73
2022/11/10 00:41:28;;;;;;;;;;;18.40;60.60;;;;;;5095518;28;20292;-74
2022/11/10 00:43:53;;;;;;;;;;;18.40;59.80;;;;;;5095043;28;19924;-73
2022/11/10 00:46:19;;;;;;;;;;;18.40;59.80;;;;;;5077074;28;19923;-73
2022/11/10 00:48:44;;;;;;;;;;;18.40;59.80;;;;;;5076839;28;19920;-73
2022/11/10 00:51:17;;;;;;;;;;;18.30;59.80;;;;;;5076980;28;19920;-73
2022/11/10 00:53:42;;;;;;;;;;;18.30;59.80;;;;;;5077036;28;20313;-72
2022/11/10 00:56:08;;;;;;;;;;;18.30;59.80;;;;;;5076874;28;20010;-73
2022/11/10 00:58:33;;;;;;;;;;;18.30;59.80;;;;;;5076769;28;19923;-73
2022/11/10 01:01:00;;;;;;;;;;;18.30;59.80;;;;;;5076793;28;20050;-73
2022/11/10 01:03:26;;;;;;;;;;;18.30;59.80;;;;;;5076739;28;19930;-73
2022/11/10 01:05:51;;;;;;;;;;;18.30;59.80;;;;;;5076974;28;20318;-73
2022/11/10 01:08:17;;;;;;;;;;;18.30;59.90;;;;;;5076455;28;20410;-72
2022/11/10 01:10:42;;;;;;;;;;;18.30;59.80;;;;;;5094706;28;19977;-73
2022/11/10 01:13:08;;;;;;;;;;;18.30;59.90;;;;;;5076533;28;19920;-73
2022/11/10 01:15:37;;;;;;;;;;;18.20;59.80;;;;;;5076521;28;19927;-72
2022/11/10 01:18:02;;;;;;;;;;;18.20;59.80;;;;;;5094495;28;19923;-73
2022/11/10 01:20:28;;;;;;;;;;;18.30;59.90;;;;;;5094405;28;19920;-73
2022/11/10 01:22:53;;;;;;;;;;;18.20;59.90;;;;;;5076102;28;19924;-73
2022/11/10 01:25:19;;;;;;;;;;;18.20;59.90;;;;;;5094254;28;19920;-73
2022/11/10 01:27:44;;;;;;;;;;;18.30;59.90;;;;;;5094435;28;19920;-73
2022/11/10 01:30:10;;;;;;;;;;;18.20;60.60;;;;;;5076131;28;20010;-73
2022/11/10 01:32:36;;;;;;;;;;;18.20;59.90;;;;;;5094435;28;19927;-73
2022/11/10 01:35:01;;;;;;;;;;;18.20;59.90;;;;;;5076076;28;20040;-73
2022/11/10 01:37:27;;;;;;;;;;;18.20;59.90;;;;;;5076055;28;19927;-73
2022/11/10 01:39:52;;;;;;;;;;;18.20;59.90;;;;;;5076253;28;20022;-73
2022/11/10 01:42:23;;;;;;;;;;;18.20;59.90;;;;;;5076080;28;19928;-73
2022/11/10 01:45:08;;;;;;;;;;;18.20;59.90;;;;;;5076194;28;19927;-73
2022/11/10 01:47:34;;;;;;;;;;;18.20;60.00;;;;;;5075632;28;20487;-73
2022/11/10 01:49:59;;;;;;;;;;;18.20;59.90;;;;;;5076131;28;19941;-73
2022/11/10 01:52:25;;;;;;;;;;;18.20;60.00;;;;;;5075801;28;20402;-73
2022/11/10 01:54:50;;;;;;;;;;;18.20;59.90;;;;;;5075699;28;19943;-73
2022/11/10 01:57:16;;;;;;;;;;;18.20;60.00;;;;;;5075665;28;20023;-73
2022/11/10 01:59:44;;;;;;;;;;;18.10;59.90;;;;;;5075607;28;20011;-73
2022/11/10 02:02:17;;;;;;;;;;;18.10;60.00;;;;;;5093637;28;19971;-73
2022/11/10 02:04:43;;;;;;;;;;;18.10;59.90;;;;;;5093694;28;19927;-73
2022/11/10 02:07:09;;;;;;;;;;;18.10;60.00;;;;;;5075669;28;19920;-72
2022/11/10 02:09:35;;;;;;;;;;;18.10;59.90;;;;;;5075419;28;19924;-73
2022/11/10 02:12:00;;;;;;;;;;;18.20;60.00;;;;;;5075646;28;19927;-73
2022/11/10 02:14:26;;;;;;;;;;;18.20;60.00;;;;;;5093669;28;19931;-74
2022/11/10 02:16:51;;;;;;;;;;;18.10;59.90;;;;;;5075314;28;19927;-73
2022/11/10 02:19:18;;;;;;;;;;;18.10;59.90;;;;;;5093350;28;19927;-74
2022/11/10 02:21:44;;;;;;;;;;;18.10;59.90;;;;;;5075133;28;19926;-73
2022/11/10 02:24:09;;;;;;;;;;;18.10;60.00;;;;;;5074887;28;19932;-73
2022/11/10 02:26:35;;;;;;;;;;;18.10;60.00;;;;;;5075039;28;19924;-73
2022/11/10 02:29:01;;;;;;;;;;;18.10;60.00;;;;;;5075110;28;20297;-73
2022/11/10 02:31:26;;;;;;;;;;;18.10;60.00;;;;;;5074503;28;20014;-73
2022/11/10 02:33:52;;;;;;;;;;;18.00;60.00;;;;;;5074946;28;20015;-73
2022/11/10 02:36:17;;;;;;;;;;;18.10;60.00;;;;;;5074904;28;19920;-73
2022/11/10 02:38:43;;;;;;;;;;;18.00;59.90;;;;;;5075077;28;19927;-74
2022/11/10 02:41:09;;;;;;;;;;;18.10;60.00;;;;;;5092941;28;19943;-73
2022/11/10 02:43:36;;;;;;;;;;;18.00;59.90;;;;;;5074739;28;19924;-74
2022/11/10 02:46:02;;;;;;;;;;;18.10;60.00;;;;;;5074781;28;19920;-73
2022/11/10 02:48:27;;;;;;;;;;;18.00;60.00;;;;;;5074770;28;19926;-73
2022/11/10 02:50:53;;;;;;;;;;;18.10;60.00;;;;;;5092923;28;20018;-73
2022/11/10 02:53:18;;;;;;;;;;;18.20;59.90;;;;;;5092674;28;19920;-73
2022/11/10 02:55:44;;;;;;;;;;;18.50;59.70;;;;;;5092137;28;19931;-72
2022/11/10 02:58:09;;;;;;;;;;;18.80;59.00;;;;;;5074520;28;20147;-72
2022/11/10 03:00:35;;;;;;;;;;;19.10;58.00;;;;;;5074639;28;19927;-73
2022/11/10 03:03:01;;;;;;;;;;;19.50;57.30;;;;;;5074586;28;19924;-73
2022/11/10 03:05:27;;;;;;;;;;;20.10;56.20;;;;;;5074924;28;20292;-72
2022/11/10 03:07:54;;;;;;;;;;;20.60;54.50;;;;;;5074691;28;19966;-73
2022/11/10 03:10:19;;;;;;;;;;;21.30;52.90;;;;;;5074422;28;19920;-72
2022/11/10 03:12:45;;;;;;;;;;;22.00;51.50;;;;;;5074620;28;19927;-73
2022/11/10 03:15:11;;;;;;;;;;;22.50;50.20;;;;;;5092532;28;19965;-73
2022/11/10 03:17:37;;;;;;;;;;;23.00;49.20;;;;;;5074287;28;20422;-73
2022/11/10 03:20:03;;;;;;;;;;;23.30;48.50;;;;;;5092460;28;19963;-73
2022/11/10 03:22:28;;;;;;;;;;;23.60;47.80;;;;;;5092154;28;20395;-72
2022/11/10 03:24:54;;;;;;;;;;;23.80;47.20;;;;;;5092089;28;20045;-73
2022/11/10 03:27:19;;;;;;;;;;;24.00;46.70;;;;;;5074255;28;20014;-73
2022/11/10 03:29:45;;;;;;;;;;;24.20;46.40;;;;;;5074279;28;20027;-73
2022/11/10 03:32:10;;;;;;;;;;;24.30;46.10;;;;;;5092330;28;19971;-73
2022/11/10 03:34:36;;;;;;;;;;;24.40;46.00;;;;;;5074245;28;19964;-73
2022/11/10 03:37:02;;;;;;;;;;;24.50;45.70;;;;;;5092325;28;19920;-73
2022/11/10 03:39:27;;;;;;;;;;;24.50;45.80;;;;;;5074188;28;19920;-73
2022/11/10 03:41:53;;;;;;;;;;;24.40;45.60;;;;;;5092148;28;19931;-73
2022/11/10 03:44:18;;;;;;;;;;;24.40;45.80;;;;;;5093805;28;20291;-73
2022/11/10 03:46:44;;;;;;;;;;;24.30;45.90;;;;;;5096541;28;19920;-73
2022/11/10 03:49:09;;;;;;;;;;;24.10;46.10;;;;;;5078150;28;19928;-73
2022/11/10 03:51:35;;;;;;;;;;;24.00;46.40;;;;;;5078392;28;19927;-73
2022/11/10 03:54:00;;;;;;;;;;;23.80;46.60;;;;;;5078082;28;20288;-73
2022/11/10 03:56:26;;;;;;;;;;;23.70;47.00;;;;;;5096071;28;19924;-72
2022/11/10 03:58:51;;;;;;;;;;;23.50;47.20;;;;;;5078218;28;19920;-73
2022/11/10 04:01:17;;;;;;;;;;;23.40;47.50;;;;;;5078230;28;20298;-73
2022/11/10 04:03:43;;;;;;;;;;;23.30;47.80;;;;;;5077808;28;19924;-73
2022/11/10 04:08:58;;;;;;;;;;;23.00;48.30;;;;;;5077463;28;20419;-73
2022/11/10 04:16:55;;;;;;;;;;;22.70;48.90;;;;;;5077420;28;19969;-73
2022/11/10 04:19:21;;;;;;;;;;;22.60;49.00;;;;;;5077298;28;19920;-73
2022/11/10 04:21:46;;;;;;;;;;;22.60;49.10;;;;;;5077447;28;19984;-73
2022/11/10 04:24:12;;;;;;;;;;;22.50;49.00;;;;;;5077101;28;19924;-73
2022/11/10 04:26:39;;;;;;;;;;;22.50;49.30;;;;;;5077397;28;19927;-74
2022/11/10 04:29:07;;;;;;;;;;;22.40;49.30;;;;;;5077396;28;20037;-73
2022/11/10 04:31:36;;;;;;;;;;;22.40;49.40;;;;;;5077548;28;19924;-73
2022/11/10 04:34:02;;;;;;;;;;;22.40;49.50;;;;;;5077317;28;19928;-73
2022/11/10 04:36:29;;;;;;;;;;;22.40;49.50;;;;;;5095361;28;20371;-73
2022/11/10 04:38:55;;;;;;;;;;;22.50;49.50;;;;;;5077232;28;20391;-73
2022/11/10 04:41:21;;;;;;;;;;;22.60;49.20;;;;;;5077102;28;19926;-73
2022/11/10 04:43:46;;;;;;;;;;;22.70;49.70;;;;;;5077108;28;19927;-73
2022/11/10 04:46:21;;;;;;;;;;;22.80;48.70;;;;;;5077086;28;20014;-73
2022/11/10 04:48:47;;;;;;;;;;;22.90;48.50;;;;;;5077222;28;19920;-73
2022/11/10 04:51:13;;;;;;;;;;;23.00;48.20;;;;;;5076932;28;19926;-73
2022/11/10 04:53:39;;;;;;;;;;;23.10;48.80;;;;;;5076924;28;19920;-73
2022/11/10 04:56:04;;;;;;;;;;;23.20;47.90;;;;;;5076345;28;19920;-73
2022/11/10 04:58:30;;;;;;;;;;;23.20;47.90;;;;;;5077143;28;19924;-73
2022/11/10 05:00:55;;;;;;;;;;;23.20;47.80;;;;;;5076785;28;19927;-73
2022/11/10 05:03:21;;;;;;;;;;;23.20;47.70;;;;;;5094853;28;19966;-74
2022/11/10 05:05:48;;;;;;;;;;;23.20;47.70;;;;;;5076865;28;19931;-73
2022/11/10 05:08:14;;;;;;;;;;;23.20;47.80;;;;;;5076656;28;19945;-73
2022/11/10 05:10:39;;;;;;;;;;;23.20;47.90;;;;;;5076912;28;19924;-72
2022/11/10 05:13:05;;;;;;;;;;;23.10;47.80;;;;;;5094868;28;20077;-73
2022/11/10 05:15:31;;;;;;;;;;;23.10;47.90;;;;;;5094689;28;19920;-73
2022/11/10 05:17:57;;;;;;;;;;;23.10;48.00;;;;;;5094500;28;19928;-73
2022/11/10 05:20:23;;;;;;;;;;;23.00;48.00;;;;;;5076692;28;20379;-74
2022/11/10 05:25:38;;;;;;;;;;;23.10;48.20;;;;;;5076350;28;20434;-74
2022/11/10 05:28:04;;;;;;;;;;;23.10;48.30;;;;;;5076298;28;19920;-74
2022/11/10 05:30:30;;;;;;;;;;;23.10;48.30;;;;;;5094376;28;19920;-74
2022/11/10 05:32:56;;;;;;;;;;;23.00;48.30;;;;;;5094251;28;20006;-73
2022/11/10 05:35:22;;;;;;;;;;;23.10;48.30;;;;;;5094225;28;20321;-73
2022/11/10 05:37:47;;;;;;;;;;;23.10;48.10;;;;;;5076377;28;19919;-73
2022/11/10 05:40:13;;;;;;;;;;;23.10;48.20;;;;;;5076026;28;20390;-74
2022/11/10 05:42:42;;;;;;;;;;;23.10;48.20;;;;;;5075869;28;19927;-74
2022/11/10 05:45:08;;;;;;;;;;;23.10;48.00;;;;;;5076293;28;19931;-74
2022/11/10 05:47:35;;;;;;;;;;;23.10;48.20;;;;;;5075853;28;19920;-73
2022/11/10 05:50:01;;;;;;;;;;;23.10;48.00;;;;;;5075884;28;19928;-73
2022/11/10 05:52:27;;;;;;;;;;;23.10;48.10;;;;;;5076028;28;19924;-74
2022/11/10 05:54:54;;;;;;;;;;;23.10;48.20;;;;;;5075754;28;19965;-74
2022/11/10 05:57:20;;;;;;;;;;;23.20;48.10;;;;;;5075662;28;19920;-73
2022/11/10 05:59:45;;;;;;;;;;;23.10;48.00;;;;;;5075694;28;19927;-73
2022/11/10 06:02:11;;;;;;;;;;;23.10;48.00;;;;;;5075581;28;19920;-74
2022/11/10 06:04:36;;;;;;;;;;;23.20;48.00;;;;;;5075464;28;19928;-73
2022/11/10 06:07:02;;;;;;;;;;;23.20;48.10;;;;;;5074976;28;19919;-73
2022/11/10 06:09:27;;;;;;;;;;;23.10;48.00;;;;;;5075422;28;20295;-73
2022/11/10 06:11:53;;;;;;;;;;;23.10;47.90;;;;;;5075373;28;19924;-73
2022/11/10 06:14:18;;;;;;;;;;;23.20;48.00;;;;;;5075301;28;19965;-74
2022/11/10 06:16:44;;;;;;;;;;;23.20;47.80;;;;;;5075311;28;19964;-73
2022/11/10 06:19:09;;;;;;;;;;;23.20;47.90;;;;;;5075362;28;19924;-73
2022/11/10 06:21:35;;;;;;;;;;;23.20;47.60;;;;;;5073592;28;20282;-73
2022/11/10 06:24:00;;;;;;;;;;;23.20;47.60;;;;;;5070036;28;20376;-74
2022/11/10 06:26:26;;;;;;;;;;;23.20;47.90;;;;;;5071643;28;19928;-74
2022/11/10 06:28:51;;;;;;;;;;;23.20;47.60;;;;;;5069660;28;19921;-73
2022/11/10 06:31:17;;;;;;;;;;;23.20;47.60;;;;;;5071028;28;19943;-74
2022/11/10 06:33:42;;;;;;;;;;;23.30;47.90;;;;;;5071080;28;20403;-71
2022/11/10 06:36:08;;;;;;;;;;;23.30;47.80;;;;;;5067392;28;19928;-72
2022/11/10 06:38:33;;;;;;;;;;;23.20;47.50;;;;;;5068351;28;19927;-73
2022/11/10 06:40:59;;;;;;;;;;;23.10;47.40;;;;;;5067478;28;20007;-63
2022/11/10 06:43:24;;;;;;;;;;;23.10;47.70;;;;;;5068368;28;20008;-73
2022/11/10 06:45:50;;;;;;;;;;;23.00;47.60;;;;;;5066012;28;20016;-75
2022/11/10 06:48:15;;;;;;;;;;;23.00;47.50;;;;;;5067815;28;20026;-76
2022/11/10 06:50:41;;;;;;;;;;;23.00;47.60;;;;;;5068998;28;19928;-77
2022/11/10 06:53:08;;;;;;;;;;;23.00;47.50;;;;;;5064701;28;19920;-75
2022/11/10 06:55:33;;;;;;;;;;;23.00;47.60;;;;;;5066388;28;19920;-74
2022/11/10 06:57:59;;;;;;;;;;;23.10;47.60;;;;;;5064498;28;20056;-75
2022/11/10 07:00:26;;;;;;;;;;;23.10;47.60;;;;;;5066224;28;20030;-73
2022/11/10 07:02:57;;;;;;;;;;;23.20;47.70;;;;;;5067070;28;19931;-74
2022/11/10 07:05:22;;;;;;;;;;;23.10;47.00;;;;;;5068236;28;19947;-75
2022/11/10 07:07:48;;;;;;;;;;;23.30;47.10;;;;;;5064295;28;19932;-74
2022/11/10 07:10:17;;;;;;;;;;;23.50;47.00;;;;;;5067459;28;19970;-74
2022/11/10 07:12:42;;;;;;;;;;;23.50;46.70;;;;;;5069364;28;19921;-75
2022/11/10 07:15:08;;;;;;;;;;;23.50;46.30;;;;;;5067763;28;19924;-74
2022/11/10 07:17:38;;;;;;;;;;;23.60;46.30;;;;;;5065016;28;20411;-77
2022/11/10 07:20:03;;;;;;;;;;;23.50;46.90;;;;;;5060419;28;20174;-70
2022/11/10 07:22:29;;;;;;;;;;;23.50;46.90;;;;;;5051775;28;20011;-76
2022/11/10 07:24:54;;;;;;;;;;;23.50;46.40;;;;;;5052519;28;19931;-78
2022/11/10 07:27:21;;;;;;;;;;;23.30;46.90;;;;;;5054166;28;20339;-76
2022/11/10 07:29:47;;;;;;;;;;;23.30;47.10;;;;;;5071773;28;20396;-76
2022/11/10 07:32:13;;;;;;;;;;;23.30;47.10;;;;;;5046688;28;19986;-75
2022/11/10 07:34:39;;;;;;;;;;;23.30;47.60;;;;;;5051598;28;19932;-75
2022/11/10 07:37:04;;;;;;;;;;;23.40;47.80;;;;;;5054937;28;19925;-75
2022/11/10 07:39:30;;;;;;;;;;;23.40;47.60;;;;;;5050098;28;19981;-75
2022/11/10 07:41:56;;;;;;;;;;;23.40;47.40;;;;;;5051924;28;19936;-75
2022/11/10 07:44:22;;;;;;;;;;;23.30;47.50;;;;;;5064693;28;20388;-76
2022/11/10 07:46:48;;;;;;;;;;;23.20;47.60;;;;;;5051984;28;19927;-74
2022/11/10 07:49:13;;;;;;;;;;;23.20;47.80;;;;;;5062515;28;19927;-74
2022/11/10 07:51:40;;;;;;;;;;;23.20;47.80;;;;;;5057241;28;19926;-74
2022/11/10 07:54:06;;;;;;;;;;;23.20;47.70;;;;;;5057177;28;19924;-74
2022/11/10 07:56:31;;;;;;;;;;;23.20;47.80;;;;;;5062425;28;20079;-73
2022/11/10 07:58:57;;;;;;;;;;;23.20;48.00;;;;;;5053748;28;20448;-74
2022/11/10 08:01:22;;;;;;;;;;;23.20;48.10;;;;;;5062569;28;20261;-75
2022/11/10 08:03:48;;;;;;;;;;;23.00;48.00;;;;;;5047158;28;20373;-75
2022/11/10 08:06:14;;;;;;;;;;;23.10;48.00;;;;;;5056141;28;20376;-66
2022/11/10 08:08:39;;;;;;;;;;;23.10;48.10;;;;;;5053834;28;20330;-74
2022/11/10 08:11:05;;;;;;;;;;;23.10;48.20;;;;;;5050824;28;19927;-73
2022/11/10 08:13:30;;;;;;;;;;;23.10;48.20;;;;;;5052430;28;19970;-73
2022/11/10 08:15:58;;;;;;;;;;;23.00;48.00;;;;;;5047343;28;19932;-75
2022/11/10 08:18:24;;;;;;;;;;;23.10;48.00;;;;;;5070289;28;20396;-66
2022/11/10 08:20:49;;;;;;;;;;;23.10;47.90;;;;;;5049139;28;19925;-75
2022/11/10 08:23:16;;;;;;;;;;;23.10;47.80;;;;;;5048530;28;19932;-75
2022/11/10 08:25:42;;;;;;;;;;;23.10;47.90;;;;;;5064695;28;19938;-75
2022/11/10 08:30:48;;;;;;;;;;;23.10;47.80;;;;;;5073923;28;20304;-73
2022/11/10 08:33:14;;;;;;;;;;;23.10;47.90;;;;;;5065957;28;20495;-73
2022/11/10 08:35:41;;;;;;;;;;;23.10;48.30;;;;;;5070332;28;19929;-67
2022/11/10 08:38:09;;;;;;;;;;;23.10;48.10;;;;;;5069677;28;19920;-68
2022/11/10 08:40:35;;;;;;;;;;;23.10;48.00;;;;;;5076620;28;19947;-75
2022/11/10 08:43:01;;;;;;;;;;;23.20;48.10;;;;;;5067619;28;19920;-71
2022/11/10 08:45:27;;;;;;;;;;;23.20;48.10;;;;;;5065188;28;19927;-68
2022/11/10 08:47:56;;;;;;;;;;;23.20;48.00;;;;;;5084274;28;20715;-69
2022/11/10 08:50:22;;;;;;;;;;;23.20;47.80;;;;;;5071174;28;19932;-77
2022/11/10 08:52:47;;;;;;;;;;;23.10;47.80;;;;;;5069180;28;20012;-77
2022/11/10 08:55:13;;;;;;;;;;;23.10;47.90;;;;;;5068600;28;20381;-77
2022/11/10 08:57:38;;;;;;;;;;;23.10;48.00;;;;;;5070259;28;19925;-77
2022/11/10 09:00:04;;;;;;;;;;;23.00;48.10;;;;;;5091221;28;19973;-77
2022/11/10 09:02:30;;;;;;;;;;;22.90;48.20;;;;;;5071098;28;19959;-77
2022/11/10 09:04:56;;;;;;;;;;;22.90;48.40;;;;;;5069225;28;19925;-77
2022/11/10 09:07:21;;;;;;;;;;;22.90;48.50;;;;;;5068437;28;19942;-77
2022/11/10 09:09:47;;;;;;;;;;;22.70;48.40;;;;;;5071936;28;19920;-67
2022/11/10 09:12:16;;;;;;;;;;;22.70;48.80;;;;;;5070646;28;19921;-77
2022/11/10 09:14:41;;;;;;;;;;;22.70;49.20;;;;;;5085536;28;19971;-77
2022/11/10 09:17:07;;;;;;;;;;;22.70;49.10;;;;;;5072496;28;19964;-76
2022/11/10 09:19:32;;;;;;;;;;;22.70;49.30;;;;;;5070006;28;19979;-77
2022/11/10 09:21:58;;;;;;;;;;;22.70;49.30;;;;;;5067373;28;20005;-71
2022/11/10 09:24:23;;;;;;;;;;;22.60;49.30;;;;;;5070502;28;19932;-71
2022/11/10 09:26:49;;;;;;;;;;;22.70;49.30;;;;;;5071837;28;20555;-71
2022/11/10 09:29:14;;;;;;;;;;;22.70;49.30;;;;;;5066601;28;19964;-71
2022/11/10 09:31:41;;;;;;;;;;;22.70;49.20;;;;;;5080419;28;20549;-71
2022/11/10 09:34:08;;;;;;;;;;;22.70;49.20;;;;;;5089927;28;19924;-70
2022/11/10 09:36:34;;;;;;;;;;;22.80;49.30;;;;;;5073503;28;20403;-70
2022/11/10 09:38:59;;;;;;;;;;;22.70;49.30;;;;;;5084853;28;19927;-70
2022/11/10 09:41:28;;;;;;;;;;;22.70;49.40;;;;;;5063765;28;19934;-71
2022/11/10 09:44:14;;;;;;;;;;;22.70;49.40;;;;;;5075776;28;19924;-70
2022/11/10 09:46:45;;;;;;;;;;;22.70;49.30;;;;;;5077316;28;19924;-70
2022/11/10 09:51:52;;;;;;;;;;;22.70;49.40;;;;;;5094637;27;19916;-69
2022/11/10 09:54:37;;;;;;;;;;;22.70;49.50;;;;;;5054545;28;19920;-69
2022/11/10 09:57:04;;;;;;;;;;;22.70;49.60;;;;;;5064760;28;20532;-69
2022/11/10 09:59:31;;;;;;;;;;;22.70;49.60;;;;;;5085070;28;20334;-70
2022/11/10 10:05:01;;;;;;;;;;;22.70;49.60;;;;;;5071671;28;20301;-71
2022/11/10 10:07:33;;;;;;;;;;;22.70;49.80;;;;;;5056416;28;19925;-71
2022/11/10 10:10:19;;;;;;;;;;;22.60;49.80;;;;;;5057486;28;20004;-68
2022/11/10 10:15:47;;;;;;;;;;;22.70;49.90;;;;;;5059418;28;19926;-69
2022/11/10 10:18:18;;;;;;;;;;;22.70;50.00;;;;;;5066812;28;19950;-71
2022/11/10 10:20:57;;;;;;;;;;;22.70;49.90;;;;;;5063182;28;19987;-72
2022/11/10 10:23:29;;;;;;;;;;;22.80;50.00;;;;;;5050444;28;19986;-70
2022/11/10 10:25:55;;;;;;;;;;;22.70;50.00;;;;;;5049375;28;20482;-69
2022/11/10 10:33:56;;;;;;;;;;;22.60;50.20;;;;;;5107566;27;1904494;-67
2022/11/10 10:36:23;;;;;;;;;;;22.60;50.40;;;;;;5178912;27;19919;-67
2022/11/10 10:38:50;;;;;;;;;;;22.60;50.60;;;;;;5151793;27;20435;-67
2022/11/10 10:44:01;;;;;;;;;;;22.60;50.70;;;;;;5096220;27;19920;-68
2022/11/10 10:46:28;;;;;;;;;;;22.50;50.70;;;;;;5091768;28;20011;-66
2022/11/10 10:49:04;;;;;;;;;;;22.50;50.80;;;;;;5090320;28;19963;-69
2022/11/10 10:51:30;;;;;;;;;;;22.50;50.90;;;;;;5085477;28;19935;-69
2022/11/10 10:53:56;;;;;;;;;;;22.50;50.90;;;;;;5115910;27;19925;-68
2022/11/10 10:56:23;;;;;;;;;;;22.40;51.00;;;;;;5087165;28;19928;-67
2022/11/10 10:58:52;;;;;;;;;;;22.40;51.40;;;;;;5085255;28;19930;-70
2022/11/10 11:04:03;;;;;;;;;;;22.30;51.60;;;;;;5071474;28;19923;-70
2022/11/10 11:06:30;;;;;;;;;;;22.40;51.30;;;;;;5074121;28;19999;-70
2022/11/10 11:08:58;;;;;;;;;;;22.30;51.40;;;;;;5074191;28;19929;-69
2022/11/10 11:11:26;;;;;;;;;;;22.30;51.50;;;;;;5065776;28;19979;-70
2022/11/10 11:13:51;;;;;;;;;;;22.20;51.60;;;;;;5072346;28;19928;-69
2022/11/10 11:16:17;;;;;;;;;;;22.20;51.90;;;;;;5077373;28;19924;-66
2022/11/10 11:18:42;;;;;;;;;;;22.10;52.20;;;;;;5085786;28;19920;-67
2022/11/10 11:21:28;;;;;;;;;;;22.10;52.10;;;;;;5084283;28;19920;-67
2022/11/10 11:24:03;;;;;;;;;;;22.10;52.10;;;;;;5085431;28;19951;-67
2022/11/10 11:29:23;;;;;;;;;;;22.20;52.10;;;;;;5086579;28;19940;-69
2022/11/10 11:37:28;;;;;;;;;;;22.50;51.70;;;;;;5087528;28;19934;-67
2022/11/10 11:39:59;;;;;;;;;;;22.20;51.20;;;;;;5085916;28;20260;-69
2022/11/10 11:48:02;;;;;;;;;;;22.60;51.30;;;;;;5088143;27;1923986;-68
2022/11/10 11:50:37;;;;;;;;;;;22.60;51.20;;;;;;5121342;27;19920;-68
2022/11/10 11:53:16;;;;;;;;;;;22.70;51.30;;;;;;5118366;27;19926;-68
2022/11/10 11:56:01;;;;;;;;;;;22.80;51.10;;;;;;5125773;27;19927;-68
2022/11/10 11:58:34;;;;;;;;;;;22.80;51.20;;;;;;5118834;27;19964;-67
2022/11/10 12:01:09;;;;;;;;;;;22.70;51.40;;;;;;5114399;27;19928;-72
2022/11/10 12:03:55;;;;;;;;;;;22.80;51.50;;;;;;5118030;27;19979;-69
2022/11/10 12:06:26;;;;;;;;;;;22.80;51.40;;;;;;5118164;27;19924;-70
2022/11/10 12:09:00;;;;;;;;;;;22.90;51.40;;;;;;5119166;27;20006;-68
2022/11/10 12:11:32;;;;;;;;;;;23.00;51.20;;;;;;5126984;27;19930;-74
2022/11/10 12:14:03;;;;;;;;;;;23.00;51.10;;;;;;5117315;27;20429;-69
2022/11/10 12:16:29;;;;;;;;;;;23.10;51.00;;;;;;5133032;27;20019;-69
2022/11/10 12:19:02;;;;;;;;;;;23.10;51.00;;;;;;5117367;27;20304;-72
2022/11/10 12:24:29;;;;;;;;;;;22.90;51.20;;;;;;5089445;27;19922;-69
2022/11/10 12:27:07;;;;;;;;;;;23.00;51.30;;;;;;5087733;28;19960;-69
2022/11/10 12:29:38;;;;;;;;;;;23.00;51.30;;;;;;5082649;28;20007;-70
2022/11/10 12:34:49;;;;;;;;;;;22.90;51.30;;;;;;5068708;28;19923;-70
2022/11/10 12:37:17;;;;;;;;;;;22.90;51.50;;;;;;5063382;28;19929;-72
2022/11/10 12:42:26;;;;;;;;;;;22.80;51.70;;;;;;5078634;27;19916;-70
2022/11/10 12:45:00;;;;;;;;;;;22.70;51.50;;;;;;5100776;28;20394;-67
2022/11/10 12:47:30;;;;;;;;;;;22.50;51.70;;;;;;5069085;28;20280;-72
2022/11/10 12:50:02;;;;;;;;;;;22.40;52.10;;;;;;5080090;28;20108;-71
2022/11/10 12:52:32;;;;;;;;;;;22.30;52.40;;;;;;5072216;28;20387;-70
2022/11/10 12:54:58;;;;;;;;;;;22.10;52.50;;;;;;5075508;28;19967;-70
2022/11/10 12:57:25;;;;;;;;;;;22.00;52.80;;;;;;5074723;28;19971;-70
2022/11/10 12:59:54;;;;;;;;;;;21.90;53.00;;;;;;5108059;28;19921;-71
2022/11/10 13:05:21;;;;;;;;;;;21.80;53.50;;;;;;5068129;28;20541;-70
2022/11/10 13:07:47;;;;;;;;;;;21.80;53.60;;;;;;5085622;28;19964;-69
2022/11/10 13:10:20;;;;;;;;;;;21.90;53.50;;;;;;5066545;28;19928;-70
2022/11/10 13:13:06;;;;;;;;;;;21.90;53.50;;;;;;5067453;28;20004;-73
2022/11/10 13:21:06;;;;;;;;;;;22.10;53.20;;;;;;5092625;27;1869141;-77
2022/11/10 13:23:51;;;;;;;;;;;22.10;53.20;;;;;;5154174;27;20279;-74
2022/11/10 13:26:37;;;;;;;;;;;22.20;53.10;;;;;;5145534;27;20403;-67
2022/11/10 13:29:17;;;;;;;;;;;22.40;52.80;;;;;;5148270;27;19923;-74
2022/11/10 13:31:49;;;;;;;;;;;22.00;52.30;;;;;;5159635;27;19923;-67
2022/11/10 13:36:58;;;;;;;;;;;22.80;52.10;;;;;;5066103;28;19921;-73
2022/11/10 13:39:26;;;;;;;;;;;22.90;51.80;;;;;;5051720;28;19921;-65
2022/11/10 13:44:37;;;;;;;;;;;22.80;51.60;;;;;;5113580;27;19918;-72
2022/11/10 13:55:37;;;;;;;;;;;22.50;52.40;;;;;;5092578;27;1860787;-79
2022/11/10 13:58:04;;;;;;;;;;;22.60;52.50;;;;;;5119857;27;20433;-69
2022/11/10 14:00:31;;;;;;;;;;;22.60;52.40;;;;;;5132274;27;19919;-67
2022/11/10 14:02:59;;;;;;;;;;;22.60;52.40;;;;;;5130731;27;19923;-70
2022/11/10 14:08:09;;;;;;;;;;;22.60;52.20;;;;;;5106727;27;1858956;-71
2022/11/10 14:13:27;;;;;;;;;;;22.50;52.50;;;;;;5073680;28;19923;-71
2022/11/10 14:15:53;;;;;;;;;;;22.50;52.70;;;;;;5067080;28;19979;-71
2022/11/10 14:18:20;;;;;;;;;;;22.50;52.90;;;;;;5057285;28;19960;-71
2022/11/10 14:20:47;;;;;;;;;;;22.50;52.70;;;;;;5053657;28;20006;-73
2022/11/10 14:23:32;;;;;;;;;;;22.60;53.00;;;;;;5053839;28;20008;-74
2022/11/10 14:25:59;;;;;;;;;;;22.70;52.50;;;;;;5063525;28;19952;-72
2022/11/10 14:28:26;;;;;;;;;;;22.70;52.40;;;;;;5064968;28;20019;-72
2022/11/10 14:30:52;;;;;;;;;;;22.80;52.30;;;;;;5062389;28;19921;-72
2022/11/10 14:33:18;;;;;;;;;;;22.80;52.20;;;;;;5062100;28;19971;-73
2022/11/10 14:38:25;;;;;;;;;;;22.90;52.10;;;;;;5056929;28;20288;-73
2022/11/10 14:40:53;;;;;;;;;;;22.90;52.00;;;;;;5052001;28;19937;-76
2022/11/10 14:43:35;;;;;;;;;;;21.40;51.20;;;;;;5045638;28;19929;-74
2022/11/10 14:46:01;;;;;;;;;;;22.80;51.90;;;;;;5042058;28;20022;-72
2022/11/10 14:48:28;;;;;;;;;;;22.70;51.80;;;;;;5045879;28;19968;-71
2022/11/10 14:50:54;;;;;;;;;;;22.80;52.10;;;;;;5046006;28;19983;-81
2022/11/10 14:53:22;;;;;;;;;;;22.50;52.10;;;;;;5046292;28;19921;-73
2022/11/10 14:55:49;;;;;;;;;;;22.50;52.60;;;;;;5046444;28;20257;-67
2022/11/10 14:58:19;;;;;;;;;;;22.40;52.60;;;;;;5044587;28;19986;-68
2022/11/10 15:00:45;;;;;;;;;;;22.40;52.80;;;;;;5050892;28;19927;-70
2022/11/10 15:03:15;;;;;;;;;;;22.50;52.80;;;;;;5052662;28;20291;-71
2022/11/10 15:05:41;;;;;;;;;;;22.60;52.50;;;;;;5055426;28;19975;-70
2022/11/10 15:08:07;;;;;;;;;;;22.60;52.40;;;;;;5051261;28;19932;-70
2022/11/10 15:16:24;;;;;;;;;;;22.60;52.00;;;;;;5102647;27;1852779;-79
2022/11/10 15:18:50;;;;;;;;;;;22.60;52.00;;;;;;5133691;27;19923;-72
2022/11/10 15:21:17;;;;;;;;;;;22.50;52.10;;;;;;5146030;27;19930;-73
2022/11/10 15:23:45;;;;;;;;;;;22.50;52.90;;;;;;5140155;27;19943;-73
2022/11/10 15:26:20;;;;;;;;;;;22.50;52.30;;;;;;5149144;27;20407;-72
2022/11/10 15:28:45;;;;;;;;;;;22.40;52.30;;;;;;5140307;27;19927;-73
2022/11/10 15:31:12;;;;;;;;;;;22.40;52.50;;;;;;5131836;27;19924;-73
2022/11/10 15:33:44;;;;;;;;;;;22.40;52.50;;;;;;5114029;27;19998;-73
2022/11/10 15:36:15;;;;;;;;;;;22.30;52.40;;;;;;5141003;27;19920;-71
2022/11/10 15:38:41;;;;;;;;;;;22.20;52.50;;;;;;5140924;27;19934;-71
2022/11/10 15:43:49;;;;;;;;;;;22.10;53.00;;;;;;5104833;27;19924;-68
2022/11/10 15:46:18;;;;;;;;;;;21.60;52.80;;;;;;5071873;28;20574;-72
2022/11/10 15:48:46;;;;;;;;;;;22.00;53.10;;;;;;5068575;28;19929;-72
2022/11/10 15:51:13;;;;;;;;;;;22.00;53.10;;;;;;5080476;28;19928;-72
2022/11/10 15:53:41;;;;;;;;;;;21.90;53.20;;;;;;5077978;28;19920;-72
2022/11/10 15:56:08;;;;;;;;;;;21.80;53.30;;;;;;5079112;28;20020;-72